Time;durP1;ratioP1;P1;durP2;ratioP2;P2;SDS_P1;SDS_P2;PMS_P1;PMS_P2;Temp;Humidity;BMP_temperature;BMP_pressure;BME280_temperature;BME280_humidity;BME280_pressure;Samples;Min_cycle;Max_cycle;Signal;HPM_P1;HPM_P2
2021/08/22 00:01:15;;;;;;;;;;;25.80;60.70;;;;;;4975011;28;20279;-63
2021/08/22 00:03:43;;;;;;;;;;;25.80;60.70;;;;;;4992306;28;19926;-63
2021/08/22 00:06:10;;;;;;;;;;;25.90;60.80;;;;;;4975385;28;20321;-63
2021/08/22 00:08:38;;;;;;;;;;;25.90;60.80;;;;;;4990655;28;19975;-62
2021/08/22 00:11:05;;;;;;;;;;;25.90;60.80;;;;;;4991485;28;19933;-63
2021/08/22 00:13:33;;;;;;;;;;;25.80;60.70;;;;;;4991144;28;20267;-63
2021/08/22 00:16:00;;;;;;;;;;;25.80;60.70;;;;;;4990710;28;19930;-63
2021/08/22 00:18:28;;;;;;;;;;;25.80;60.70;;;;;;4991910;28;19933;-64
2021/08/22 00:20:55;;;;;;;;;;;25.80;60.70;;;;;;4991998;28;20009;-63
2021/08/22 00:23:22;;;;;;;;;;;25.80;60.70;;;;;;4991581;28;19925;-63
2021/08/22 00:25:49;;;;;;;;;;;25.80;60.70;;;;;;4977827;28;20013;-63
2021/08/22 00:28:18;;;;;;;;;;;25.80;60.70;;;;;;4990338;28;19981;-63
2021/08/22 00:30:46;;;;;;;;;;;25.80;60.70;;;;;;4991376;28;19926;-63
2021/08/22 00:33:14;;;;;;;;;;;25.80;60.70;;;;;;4991787;28;19925;-64
2021/08/22 00:35:41;;;;;;;;;;;25.80;60.70;;;;;;4990355;28;19926;-63
2021/08/22 00:38:08;;;;;;;;;;;25.80;60.80;;;;;;4990236;28;19925;-63
2021/08/22 00:40:35;;;;;;;;;;;25.80;60.80;;;;;;4991376;28;19972;-63
2021/08/22 00:43:07;;;;;;;;;;;25.80;60.80;;;;;;4991336;28;19926;-62
2021/08/22 00:45:37;;;;;;;;;;;25.80;60.80;;;;;;4991338;28;20545;-63
2021/08/22 00:48:05;;;;;;;;;;;25.80;60.80;;;;;;4991141;28;19926;-63
2021/08/22 00:50:33;;;;;;;;;;;25.80;60.80;;;;;;4990325;28;19926;-63
2021/08/22 00:53:03;;;;;;;;;;;25.80;60.70;;;;;;4991304;28;19983;-63
2021/08/22 00:55:31;;;;;;;;;;;25.80;60.80;;;;;;4990732;28;19937;-64
2021/08/22 00:57:58;;;;;;;;;;;25.80;60.80;;;;;;4989791;28;19976;-63
2021/08/22 01:00:25;;;;;;;;;;;25.80;60.80;;;;;;4991366;28;20241;-64
2021/08/22 01:03:05;;;;;;;;;;;25.80;60.80;;;;;;4989906;28;19956;-63
2021/08/22 01:05:52;;;;;;;;;;;25.80;60.80;;;;;;4991318;28;20345;-63
2021/08/22 01:08:26;;;;;;;;;;;25.80;60.80;;;;;;4990922;28;19925;-63
2021/08/22 01:10:56;;;;;;;;;;;25.80;60.80;;;;;;4990071;28;19980;-63
2021/08/22 01:13:25;;;;;;;;;;;25.80;60.80;;;;;;4990534;28;20001;-64
2021/08/22 01:15:56;;;;;;;;;;;25.80;60.80;;;;;;4990604;28;20415;-63
2021/08/22 01:18:25;;;;;;;;;;;25.80;60.80;;;;;;4990488;28;19979;-63
2021/08/22 01:20:56;;;;;;;;;;;25.80;60.80;;;;;;4990592;28;19933;-63
2021/08/22 01:23:23;;;;;;;;;;;25.80;60.80;;;;;;4989654;28;19930;-63
2021/08/22 01:25:51;;;;;;;;;;;25.80;60.80;;;;;;4990726;28;20382;-63
2021/08/22 01:28:18;;;;;;;;;;;25.80;60.80;;;;;;4990470;28;19984;-63
2021/08/22 01:30:48;;;;;;;;;;;25.80;60.70;;;;;;4990756;28;19926;-64
2021/08/22 01:33:17;;;;;;;;;;;25.80;60.80;;;;;;4973841;28;20318;-65
2021/08/22 01:35:45;;;;;;;;;;;25.80;60.70;;;;;;5004777;28;19926;-65
2021/08/22 01:38:14;;;;;;;;;;;25.80;60.80;;;;;;4990082;28;19933;-65
2021/08/22 01:40:42;;;;;;;;;;;25.80;60.70;;;;;;4971132;28;19933;-63
2021/08/22 01:43:10;;;;;;;;;;;25.80;60.80;;;;;;4989380;28;19964;-65
2021/08/22 01:45:38;;;;;;;;;;;25.80;60.80;;;;;;4989920;28;19930;-64
2021/08/22 01:48:06;;;;;;;;;;;25.80;60.80;;;;;;4990629;28;19979;-65
2021/08/22 01:50:33;;;;;;;;;;;25.80;60.80;;;;;;4989228;28;20378;-63
2021/08/22 01:53:03;;;;;;;;;;;25.80;60.80;;;;;;4990696;28;20377;-64
2021/08/22 01:55:30;;;;;;;;;;;25.80;60.80;;;;;;4988990;28;20374;-63
2021/08/22 01:57:57;;;;;;;;;;;25.80;60.70;;;;;;4989990;28;19940;-63
2021/08/22 02:00:24;;;;;;;;;;;25.80;60.80;;;;;;4989228;28;19926;-63
2021/08/22 02:02:58;;;;;;;;;;;25.80;60.80;;;;;;4972115;28;20336;-63
2021/08/22 02:05:26;;;;;;;;;;;25.80;60.80;;;;;;4989445;28;20294;-63
2021/08/22 02:07:54;;;;;;;;;;;25.80;60.70;;;;;;4989000;28;19933;-63
2021/08/22 02:10:30;;;;;;;;;;;25.80;60.70;;;;;;4989008;28;19930;-63
2021/08/22 02:12:59;;;;;;;;;;;25.80;60.70;;;;;;4990209;28;19965;-63
2021/08/22 02:15:32;;;;;;;;;;;25.80;60.70;;;;;;4989082;28;20397;-63
2021/08/22 02:18:00;;;;;;;;;;;25.80;60.70;;;;;;4990178;28;20258;-63
2021/08/22 02:20:28;;;;;;;;;;;25.80;60.70;;;;;;4990146;28;19962;-63
2021/08/22 02:22:55;;;;;;;;;;;25.80;60.70;;;;;;4988969;28;20412;-63
2021/08/22 02:25:23;;;;;;;;;;;25.80;60.70;;;;;;4989290;28;20262;-63
2021/08/22 02:27:50;;;;;;;;;;;25.80;60.70;;;;;;4988653;28;19954;-63
2021/08/22 02:30:17;;;;;;;;;;;25.80;60.70;;;;;;4990312;28;20005;-63
2021/08/22 02:32:45;;;;;;;;;;;25.80;60.70;;;;;;4993219;28;20389;-63
2021/08/22 02:35:12;;;;;;;;;;;25.80;60.70;;;;;;4993261;28;19980;-63
2021/08/22 02:37:39;;;;;;;;;;;25.80;60.70;;;;;;4993371;28;19926;-63
2021/08/22 02:40:06;;;;;;;;;;;25.80;60.70;;;;;;4993122;28;20004;-63
2021/08/22 02:42:33;;;;;;;;;;;25.70;60.60;;;;;;4993325;28;19926;-63
2021/08/22 02:45:01;;;;;;;;;;;25.80;60.70;;;;;;4992376;28;19936;-63
2021/08/22 02:47:28;;;;;;;;;;;25.80;60.70;;;;;;4992094;28;20456;-62
2021/08/22 02:49:55;;;;;;;;;;;25.80;60.70;;;;;;4992965;28;19926;-63
2021/08/22 02:52:23;;;;;;;;;;;25.80;60.70;;;;;;4992096;28;19977;-63
2021/08/22 02:54:51;;;;;;;;;;;25.80;60.60;;;;;;4992365;28;19937;-63
2021/08/22 02:57:19;;;;;;;;;;;25.80;60.60;;;;;;4975756;28;19926;-63
2021/08/22 02:59:46;;;;;;;;;;;25.80;60.60;;;;;;4992905;28;19979;-63
2021/08/22 03:02:12;;;;;;;;;;;25.80;60.70;;;;;;4993138;28;19926;-64
2021/08/22 03:04:40;;;;;;;;;;;25.80;60.60;;;;;;4992116;28;20335;-63
2021/08/22 03:07:07;;;;;;;;;;;25.80;60.60;;;;;;4991669;28;19933;-63
2021/08/22 03:09:34;;;;;;;;;;;25.80;60.60;;;;;;4991275;28;20458;-64
2021/08/22 03:12:01;;;;;;;;;;;25.80;60.60;;;;;;4992638;28;19964;-63
2021/08/22 03:14:28;;;;;;;;;;;25.80;60.60;;;;;;4992544;28;19983;-63
2021/08/22 03:16:54;;;;;;;;;;;25.80;60.60;;;;;;4992856;28;19949;-62
2021/08/22 03:19:22;;;;;;;;;;;25.80;61.30;;;;;;4992716;28;19976;-63
2021/08/22 03:21:49;;;;;;;;;;;25.80;60.60;;;;;;4992537;28;19971;-63
2021/08/22 03:24:16;;;;;;;;;;;25.80;60.70;;;;;;4992629;28;19963;-63
2021/08/22 03:26:43;;;;;;;;;;;25.80;60.70;;;;;;4992408;28;20456;-63
2021/08/22 03:29:09;;;;;;;;;;;25.70;61.30;;;;;;4991297;28;19984;-63
2021/08/22 03:31:36;;;;;;;;;;;25.80;60.60;;;;;;4992512;28;20401;-63
2021/08/22 03:34:04;;;;;;;;;;;25.80;60.60;;;;;;4975699;28;19934;-63
2021/08/22 03:36:31;;;;;;;;;;;25.80;60.60;;;;;;4992353;28;20017;-63
2021/08/22 03:38:58;;;;;;;;;;;25.70;60.50;;;;;;4992305;28;20029;-63
2021/08/22 03:41:25;;;;;;;;;;;25.70;60.60;;;;;;4992534;28;20013;-63
2021/08/22 03:43:52;;;;;;;;;;;25.70;60.60;;;;;;4992533;28;19951;-63
2021/08/22 03:46:19;;;;;;;;;;;25.70;60.50;;;;;;4991229;28;19926;-63
2021/08/22 03:48:46;;;;;;;;;;;25.80;60.60;;;;;;4992206;28;19976;-63
2021/08/22 03:51:13;;;;;;;;;;;25.80;60.60;;;;;;4991224;28;19929;-64
2021/08/22 03:53:40;;;;;;;;;;;25.70;60.50;;;;;;4990984;28;19983;-63
2021/08/22 03:56:07;;;;;;;;;;;25.70;60.50;;;;;;4987304;28;19971;-63
2021/08/22 03:58:34;;;;;;;;;;;25.70;60.60;;;;;;4991114;28;20031;-63
2021/08/22 04:01:01;;;;;;;;;;;25.70;60.50;;;;;;4991865;28;19937;-64
2021/08/22 04:03:29;;;;;;;;;;;25.80;60.60;;;;;;4991943;28;20013;-64
2021/08/22 04:05:56;;;;;;;;;;;25.70;60.50;;;;;;4991965;28;19926;-64
2021/08/22 04:08:25;;;;;;;;;;;25.70;60.50;;;;;;4990705;28;20415;-63
2021/08/22 04:10:52;;;;;;;;;;;25.80;60.60;;;;;;4991704;28;20377;-64
2021/08/22 04:13:20;;;;;;;;;;;25.70;60.50;;;;;;4991160;28;19977;-63
2021/08/22 04:15:47;;;;;;;;;;;25.80;60.60;;;;;;4991664;28;19932;-64
2021/08/22 04:18:14;;;;;;;;;;;25.80;60.60;;;;;;4991075;28;19926;-64
2021/08/22 04:20:41;;;;;;;;;;;25.70;60.50;;;;;;4990883;28;19926;-64
2021/08/22 04:23:09;;;;;;;;;;;25.70;60.50;;;;;;4990891;28;19976;-64
2021/08/22 04:25:36;;;;;;;;;;;25.80;60.60;;;;;;4991840;28;20021;-63
2021/08/22 04:28:06;;;;;;;;;;;25.70;60.40;;;;;;4991846;28;19926;-63
2021/08/22 04:30:37;;;;;;;;;;;25.80;60.60;;;;;;4975047;28;20021;-63
2021/08/22 04:33:18;;;;;;;;;;;25.80;60.50;;;;;;4975562;28;20293;-63
2021/08/22 04:35:45;;;;;;;;;;;25.70;60.40;;;;;;4990497;28;19930;-63
2021/08/22 04:38:12;;;;;;;;;;;25.80;60.50;;;;;;4991665;28;19926;-64
2021/08/22 04:40:39;;;;;;;;;;;25.80;60.50;;;;;;4990986;28;20058;-64
2021/08/22 04:43:06;;;;;;;;;;;25.80;60.50;;;;;;4991722;28;19975;-64
2021/08/22 04:45:33;;;;;;;;;;;25.80;60.40;;;;;;4991796;28;19933;-63
2021/08/22 04:48:00;;;;;;;;;;;25.80;60.50;;;;;;4990177;28;20366;-64
2021/08/22 04:50:27;;;;;;;;;;;25.80;60.40;;;;;;4991023;28;19933;-64
2021/08/22 04:52:55;;;;;;;;;;;25.80;60.40;;;;;;4990165;28;20008;-64
2021/08/22 04:55:22;;;;;;;;;;;25.80;60.40;;;;;;4990590;28;19925;-64
2021/08/22 04:57:49;;;;;;;;;;;25.80;60.40;;;;;;4990959;28;19926;-63
2021/08/22 05:00:16;;;;;;;;;;;25.80;60.30;;;;;;4991393;28;20274;-63
2021/08/22 05:02:44;;;;;;;;;;;25.80;60.10;;;;;;4991257;28;19991;-63
2021/08/22 05:05:11;;;;;;;;;;;25.90;60.20;;;;;;4991000;28;20352;-63
2021/08/22 05:07:38;;;;;;;;;;;25.90;60.10;;;;;;4990041;28;20316;-64
2021/08/22 05:10:05;;;;;;;;;;;25.90;60.10;;;;;;4990797;28;19969;-63
2021/08/22 05:12:33;;;;;;;;;;;25.90;60.00;;;;;;4989944;28;19926;-63
2021/08/22 05:15:00;;;;;;;;;;;25.90;60.00;;;;;;4972726;28;20405;-63
2021/08/22 05:17:27;;;;;;;;;;;26.00;60.00;;;;;;4989856;28;19969;-63
2021/08/22 05:19:54;;;;;;;;;;;25.90;59.90;;;;;;4989626;28;20020;-63
2021/08/22 05:22:21;;;;;;;;;;;26.00;59.90;;;;;;4991348;28;20615;-63
2021/08/22 05:24:48;;;;;;;;;;;26.00;59.80;;;;;;4990996;28;20392;-63
2021/08/22 05:27:15;;;;;;;;;;;26.00;59.80;;;;;;4990906;28;19934;-64
2021/08/22 05:29:42;;;;;;;;;;;26.00;59.80;;;;;;4990621;28;19930;-64
2021/08/22 05:32:09;;;;;;;;;;;26.00;59.70;;;;;;4989815;28;19934;-64
2021/08/22 05:34:36;;;;;;;;;;;26.00;59.70;;;;;;4990620;28;20007;-63
2021/08/22 05:37:03;;;;;;;;;;;26.10;59.70;;;;;;4991023;28;19926;-63
2021/08/22 05:39:31;;;;;;;;;;;26.10;59.70;;;;;;4989566;28;20389;-63
2021/08/22 05:41:58;;;;;;;;;;;26.10;59.70;;;;;;4990625;28;19926;-63
2021/08/22 05:44:25;;;;;;;;;;;26.10;59.60;;;;;;4972211;28;19940;-64
2021/08/22 05:46:52;;;;;;;;;;;26.10;59.50;;;;;;4990756;28;20325;-63
2021/08/22 05:49:19;;;;;;;;;;;26.10;59.50;;;;;;4990647;28;20328;-63
2021/08/22 05:51:47;;;;;;;;;;;26.10;59.40;;;;;;4989621;28;19925;-63
2021/08/22 05:54:14;;;;;;;;;;;26.10;59.40;;;;;;4990305;28;20454;-64
2021/08/22 05:56:41;;;;;;;;;;;26.20;59.40;;;;;;4988904;28;19932;-63
2021/08/22 05:59:08;;;;;;;;;;;26.20;59.40;;;;;;4973395;28;19926;-63
2021/08/22 06:01:36;;;;;;;;;;;26.20;59.40;;;;;;4989118;28;19926;-63
2021/08/22 06:04:03;;;;;;;;;;;26.20;59.30;;;;;;4990444;28;20011;-63
2021/08/22 06:06:30;;;;;;;;;;;26.20;59.20;;;;;;4991056;28;20020;-63
2021/08/22 06:08:58;;;;;;;;;;;26.20;59.20;;;;;;4993597;28;20449;-63
2021/08/22 06:11:25;;;;;;;;;;;26.20;59.10;;;;;;4992432;28;19975;-63
2021/08/22 06:13:52;;;;;;;;;;;26.20;59.10;;;;;;4975458;28;20389;-63
2021/08/22 06:16:20;;;;;;;;;;;26.30;59.10;;;;;;4992865;28;20304;-63
2021/08/22 06:18:48;;;;;;;;;;;26.30;59.00;;;;;;4992363;28;19934;-63
2021/08/22 06:21:15;;;;;;;;;;;26.40;59.00;;;;;;4993418;28;19984;-63
2021/08/22 06:23:42;;;;;;;;;;;26.40;58.90;;;;;;4976565;28;19995;-64
2021/08/22 06:26:09;;;;;;;;;;;26.40;58.80;;;;;;4993405;28;19926;-63
2021/08/22 06:28:36;;;;;;;;;;;26.40;58.80;;;;;;4993685;28;19926;-63
2021/08/22 06:31:03;;;;;;;;;;;26.40;58.80;;;;;;4993395;28;19998;-63
2021/08/22 06:33:42;;;;;;;;;;;26.40;58.80;;;;;;4993066;28;19930;-64
2021/08/22 06:36:45;;;;;;;;;;;26.50;58.70;;;;;;4976790;28;19926;-64
2021/08/22 06:39:39;;;;;;;;;;;26.60;58.50;;;;;;4993572;28;20347;-63
2021/08/22 06:42:07;;;;;;;;;;;26.60;58.40;;;;;;4993613;28;19926;-63
2021/08/22 06:44:34;;;;;;;;;;;26.60;58.40;;;;;;4993265;28;20409;-63
2021/08/22 06:47:01;;;;;;;;;;;26.60;58.30;;;;;;4992085;28;19934;-64
2021/08/22 06:49:28;;;;;;;;;;;26.60;58.30;;;;;;4992993;28;19926;-63
2021/08/22 06:51:55;;;;;;;;;;;26.60;58.30;;;;;;4992379;28;19979;-63
2021/08/22 06:54:22;;;;;;;;;;;26.60;58.30;;;;;;4991829;28;20013;-63
2021/08/22 06:56:52;;;;;;;;;;;26.60;58.30;;;;;;4974900;28;19971;-63
2021/08/22 06:59:19;;;;;;;;;;;26.60;58.30;;;;;;4992939;28;19961;-64
2021/08/22 07:01:46;;;;;;;;;;;26.60;58.20;;;;;;4993266;28;19973;-63
2021/08/22 07:04:13;;;;;;;;;;;26.60;58.20;;;;;;4993075;28;20366;-64
2021/08/22 07:06:41;;;;;;;;;;;26.70;58.20;;;;;;4996543;28;19961;-63
2021/08/22 07:09:08;;;;;;;;;;;26.70;58.20;;;;;;4975405;28;19929;-63
2021/08/22 07:11:35;;;;;;;;;;;26.70;58.20;;;;;;4992748;28;20000;-63
2021/08/22 07:14:02;;;;;;;;;;;26.70;58.10;;;;;;4991876;28;19926;-62
2021/08/22 07:16:31;;;;;;;;;;;26.70;58.10;;;;;;4991043;28;19926;-63
2021/08/22 07:18:58;;;;;;;;;;;26.70;58.10;;;;;;4992029;28;19925;-63
2021/08/22 07:21:25;;;;;;;;;;;26.70;58.10;;;;;;4991546;28;19976;-63
2021/08/22 07:23:52;;;;;;;;;;;26.70;58.10;;;;;;4992761;28;20024;-63
2021/08/22 07:26:19;;;;;;;;;;;26.70;58.10;;;;;;4991467;28;19926;-63
2021/08/22 07:28:47;;;;;;;;;;;26.60;58.10;;;;;;4991376;28;20405;-64
2021/08/22 07:31:15;;;;;;;;;;;26.70;58.20;;;;;;4992281;28;19926;-64
2021/08/22 07:33:44;;;;;;;;;;;26.70;58.10;;;;;;4975541;28;19948;-63
2021/08/22 07:36:12;;;;;;;;;;;26.70;58.10;;;;;;4992492;28;19937;-63
2021/08/22 07:38:39;;;;;;;;;;;26.70;58.00;;;;;;4974018;28;19926;-63
2021/08/22 07:41:06;;;;;;;;;;;26.70;58.00;;;;;;4991377;28;19984;-64
2021/08/22 07:43:33;;;;;;;;;;;26.80;58.00;;;;;;4992329;28;19972;-64
2021/08/22 07:46:01;;;;;;;;;;;26.80;58.00;;;;;;4992423;28;20456;-63
2021/08/22 07:48:28;;;;;;;;;;;26.80;58.00;;;;;;4992176;28;19965;-63
2021/08/22 07:50:55;;;;;;;;;;;26.80;57.90;;;;;;4992302;28;20048;-63
2021/08/22 07:53:22;;;;;;;;;;;26.80;57.90;;;;;;4991435;28;19932;-63
2021/08/22 07:55:49;;;;;;;;;;;26.80;58.00;;;;;;4974044;28;20005;-64
2021/08/22 07:58:17;;;;;;;;;;;26.80;57.90;;;;;;4991464;28;20063;-64
2021/08/22 08:00:44;;;;;;;;;;;26.80;58.00;;;;;;4991309;28;19972;-63
2021/08/22 08:03:12;;;;;;;;;;;26.80;58.00;;;;;;4991083;28;19934;-63
2021/08/22 08:05:40;;;;;;;;;;;26.80;58.00;;;;;;4991108;28;19996;-63
2021/08/22 08:08:07;;;;;;;;;;;26.80;58.00;;;;;;4991858;28;20044;-63
2021/08/22 08:10:34;;;;;;;;;;;26.70;58.00;;;;;;4990732;28;19926;-63
2021/08/22 08:13:01;;;;;;;;;;;26.80;58.10;;;;;;4991003;28;19933;-63
2021/08/22 08:15:28;;;;;;;;;;;26.80;58.00;;;;;;4991706;28;19976;-63
2021/08/22 08:17:55;;;;;;;;;;;26.80;58.00;;;;;;4992010;28;20266;-64
2021/08/22 08:20:22;;;;;;;;;;;26.80;57.90;;;;;;4990970;28;19932;-63
2021/08/22 08:22:49;;;;;;;;;;;26.80;57.90;;;;;;4973351;28;20382;-64
2021/08/22 08:25:17;;;;;;;;;;;26.80;57.90;;;;;;4990673;28;19965;-63
2021/08/22 08:27:44;;;;;;;;;;;26.90;57.90;;;;;;4991117;28;20354;-64
2021/08/22 08:30:11;;;;;;;;;;;26.90;57.90;;;;;;4990759;28;19999;-63
2021/08/22 08:32:39;;;;;;;;;;;26.90;57.90;;;;;;4990800;28;19925;-64
2021/08/22 08:35:15;;;;;;;;;;;26.90;57.80;;;;;;4991721;28;19930;-64
2021/08/22 08:37:42;;;;;;;;;;;27.00;57.80;;;;;;4973301;28;19955;-64
2021/08/22 08:40:11;;;;;;;;;;;26.90;57.70;;;;;;4991458;28;19926;-64
2021/08/22 08:42:44;;;;;;;;;;;26.90;57.80;;;;;;4991340;28;19969;-64
2021/08/22 08:45:29;;;;;;;;;;;26.90;57.70;;;;;;4991630;28;20001;-64
2021/08/22 08:47:58;;;;;;;;;;;27.00;57.80;;;;;;4990310;28;19926;-64
2021/08/22 08:50:40;;;;;;;;;;;27.00;57.80;;;;;;4991299;28;20103;-64
2021/08/22 08:53:09;;;;;;;;;;;27.00;57.70;;;;;;4990735;28;19940;-64
2021/08/22 08:55:47;;;;;;;;;;;27.00;57.80;;;;;;4990812;28;20055;-63
2021/08/22 08:58:14;;;;;;;;;;;27.00;57.70;;;;;;4989884;28;19932;-64
2021/08/22 09:00:47;;;;;;;;;;;27.00;57.80;;;;;;4989948;28;19926;-64
2021/08/22 09:03:15;;;;;;;;;;;27.00;57.80;;;;;;4991327;28;19926;-64
2021/08/22 09:05:54;;;;;;;;;;;27.00;58.40;;;;;;4991102;28;19972;-64
2021/08/22 09:08:22;;;;;;;;;;;27.00;57.80;;;;;;4990936;28;20450;-64
2021/08/22 09:11:07;;;;;;;;;;;27.00;57.80;;;;;;4990682;28;20013;-63
2021/08/22 09:13:35;;;;;;;;;;;27.00;57.80;;;;;;4991009;28;19926;-63
2021/08/22 09:16:02;;;;;;;;;;;27.00;57.90;;;;;;4990824;28;19992;-63
2021/08/22 09:18:47;;;;;;;;;;;27.00;57.90;;;;;;4991180;28;19971;-63
2021/08/22 09:21:24;;;;;;;;;;;27.00;57.90;;;;;;4989806;28;20385;-64
2021/08/22 09:24:05;;;;;;;;;;;27.00;57.90;;;;;;4990647;28;19932;-63
2021/08/22 09:26:38;;;;;;;;;;;27.00;57.80;;;;;;4991081;28;20343;-63
2021/08/22 09:29:24;;;;;;;;;;;27.00;57.90;;;;;;4989799;28;20000;-63
2021/08/22 09:31:54;;;;;;;;;;;27.00;57.90;;;;;;4989820;28;19930;-63
2021/08/22 09:34:31;;;;;;;;;;;27.00;57.90;;;;;;4990824;28;19936;-63
2021/08/22 09:37:16;;;;;;;;;;;27.00;57.90;;;;;;4989578;28;19932;-64
2021/08/22 09:40:02;;;;;;;;;;;27.00;57.80;;;;;;4990023;28;19939;-63
2021/08/22 09:42:48;;;;;;;;;;;27.10;57.90;;;;;;4989522;28;20039;-63
2021/08/22 09:45:34;;;;;;;;;;;27.00;58.00;;;;;;4990455;28;19973;-63
2021/08/22 09:48:20;;;;;;;;;;;27.00;58.00;;;;;;4990578;28;20355;-63
2021/08/22 09:51:05;;;;;;;;;;;27.00;58.00;;;;;;4989830;28;19926;-63
2021/08/22 09:53:32;;;;;;;;;;;27.00;57.90;;;;;;4988721;28;19965;-64
2021/08/22 09:56:18;;;;;;;;;;;27.10;57.90;;;;;;4989059;28;19961;-63
2021/08/22 09:59:03;;;;;;;;;;;27.10;57.90;;;;;;4990336;28;20013;-63
2021/08/22 10:01:36;;;;;;;;;;;27.10;57.80;;;;;;4993778;28;20393;-64
2021/08/22 10:04:15;;;;;;;;;;;27.20;57.80;;;;;;4990336;28;19972;-63
2021/08/22 10:07:01;;;;;;;;;;;27.20;57.80;;;;;;4990182;28;20016;-63
2021/08/22 10:09:39;;;;;;;;;;;27.20;57.80;;;;;;4975447;28;19975;-63
2021/08/22 10:12:06;;;;;;;;;;;27.20;57.70;;;;;;4989909;28;19979;-63
2021/08/22 10:14:36;;;;;;;;;;;27.20;57.70;;;;;;4990229;28;19926;-63
2021/08/22 10:17:03;;;;;;;;;;;27.20;57.70;;;;;;4990141;28;20378;-64
2021/08/22 10:19:31;;;;;;;;;;;27.20;57.70;;;;;;4989593;28;19948;-64
2021/08/22 10:22:09;;;;;;;;;;;27.20;57.70;;;;;;4989938;28;19968;-63
2021/08/22 10:24:36;;;;;;;;;;;27.20;57.70;;;;;;4989662;28;19973;-64
2021/08/22 10:27:06;;;;;;;;;;;27.20;57.80;;;;;;4990025;28;19933;-63
2021/08/22 10:29:49;;;;;;;;;;;27.20;57.80;;;;;;4990194;28;19926;-64
2021/08/22 10:32:16;;;;;;;;;;;27.20;57.90;;;;;;4990069;28;20293;-64
2021/08/22 10:34:43;;;;;;;;;;;27.20;57.80;;;;;;4989062;28;19930;-63
2021/08/22 10:37:27;;;;;;;;;;;27.10;57.80;;;;;;4990629;28;19948;-63
2021/08/22 10:39:55;;;;;;;;;;;27.10;57.80;;;;;;4989351;28;19926;-64
2021/08/22 10:42:24;;;;;;;;;;;27.20;57.90;;;;;;4989941;28;19930;-63
2021/08/22 10:44:52;;;;;;;;;;;27.10;57.70;;;;;;4987955;28;20397;-63
2021/08/22 10:47:19;;;;;;;;;;;27.20;57.90;;;;;;4989818;28;19926;-63
2021/08/22 10:49:49;;;;;;;;;;;27.20;57.80;;;;;;4988919;28;20293;-61
2021/08/22 10:52:22;;;;;;;;;;;27.20;57.80;;;;;;4990093;28;19925;-64
2021/08/22 10:55:08;;;;;;;;;;;27.20;57.80;;;;;;4971378;28;19988;-63
2021/08/22 10:57:41;;;;;;;;;;;27.20;57.80;;;;;;4991345;28;20021;-61
2021/08/22 11:00:34;;;;;;;;;;;27.20;57.70;;;;;;4992939;28;19933;-61
2021/08/22 11:03:05;;;;;;;;;;;27.20;57.70;;;;;;4983263;28;19980;-65
2021/08/22 11:05:33;;;;;;;;;;;27.30;57.80;;;;;;4992427;28;19937;-62
2021/08/22 11:08:11;;;;;;;;;;;27.20;57.70;;;;;;4991852;28;19932;-61
2021/08/22 11:10:39;;;;;;;;;;;27.30;57.80;;;;;;4992867;28;19933;-61
2021/08/22 11:13:06;;;;;;;;;;;27.20;57.70;;;;;;4992951;28;20422;-62
2021/08/22 11:15:34;;;;;;;;;;;27.20;57.80;;;;;;4992718;28;19925;-62
2021/08/22 11:18:02;;;;;;;;;;;27.20;57.80;;;;;;4992795;28;19941;-62
2021/08/22 11:20:30;;;;;;;;;;;27.20;57.80;;;;;;4991583;28;19979;-63
2021/08/22 11:23:04;;;;;;;;;;;27.20;57.80;;;;;;4992872;28;19926;-62
2021/08/22 11:25:32;;;;;;;;;;;27.20;57.90;;;;;;4992568;28;19973;-61
2021/08/22 11:28:09;;;;;;;;;;;27.20;58.00;;;;;;4991173;28;19925;-63
2021/08/22 11:30:37;;;;;;;;;;;27.10;58.00;;;;;;4992460;28;19965;-62
2021/08/22 11:33:04;;;;;;;;;;;27.10;58.10;;;;;;4991916;28;20004;-62
2021/08/22 11:35:34;;;;;;;;;;;27.10;58.10;;;;;;4991664;28;19929;-62
2021/08/22 11:38:02;;;;;;;;;;;27.10;58.10;;;;;;4991434;28;19983;-62
2021/08/22 11:40:29;;;;;;;;;;;27.10;58.80;;;;;;4991173;28;19968;-63
2021/08/22 11:42:58;;;;;;;;;;;27.00;58.30;;;;;;4978371;28;20396;-62
2021/08/22 11:45:34;;;;;;;;;;;27.00;58.50;;;;;;4991200;28;19984;-62
2021/08/22 11:48:02;;;;;;;;;;;26.90;58.50;;;;;;4992069;28;19937;-62
2021/08/22 11:50:32;;;;;;;;;;;26.90;58.60;;;;;;4992428;28;19964;-62
2021/08/22 11:53:00;;;;;;;;;;;26.90;58.60;;;;;;4992446;28;19972;-62
2021/08/22 11:55:32;;;;;;;;;;;26.90;59.20;;;;;;4991951;28;19925;-62
2021/08/22 11:58:17;;;;;;;;;;;26.90;58.70;;;;;;4990905;28;20282;-62
2021/08/22 12:00:47;;;;;;;;;;;26.90;58.70;;;;;;4991974;28;19978;-62
2021/08/22 12:03:15;;;;;;;;;;;26.90;58.80;;;;;;4991137;28;19975;-63
2021/08/22 12:05:53;;;;;;;;;;;26.90;58.80;;;;;;4991188;28;20349;-62
2021/08/22 12:08:20;;;;;;;;;;;26.90;58.80;;;;;;4991131;28;19925;-62
2021/08/22 12:10:48;;;;;;;;;;;26.90;58.80;;;;;;4990853;28;19925;-62
2021/08/22 12:13:19;;;;;;;;;;;26.90;58.80;;;;;;4991845;28;19971;-63
2021/08/22 12:15:47;;;;;;;;;;;26.90;58.80;;;;;;4991790;28;19984;-62
2021/08/22 12:18:16;;;;;;;;;;;26.90;58.80;;;;;;4991755;28;19965;-63
2021/08/22 12:20:46;;;;;;;;;;;26.90;58.90;;;;;;4990393;28;20009;-62
2021/08/22 12:23:14;;;;;;;;;;;26.90;58.90;;;;;;4990431;28;19926;-63
2021/08/22 12:25:43;;;;;;;;;;;26.90;58.80;;;;;;4991463;28;19932;-62
2021/08/22 12:28:21;;;;;;;;;;;26.90;58.80;;;;;;4990688;28;19926;-61
2021/08/22 12:30:51;;;;;;;;;;;26.90;58.70;;;;;;4991368;28;19948;-62
2021/08/22 12:33:32;;;;;;;;;;;26.90;58.70;;;;;;4990344;28;19930;-62
2021/08/22 12:36:11;;;;;;;;;;;27.00;58.70;;;;;;4991551;28;20032;-62
2021/08/22 12:38:42;;;;;;;;;;;27.00;58.70;;;;;;4990403;28;19937;-62
2021/08/22 12:41:22;;;;;;;;;;;27.00;58.60;;;;;;4991409;28;19926;-62
2021/08/22 12:43:50;;;;;;;;;;;27.00;58.50;;;;;;4991210;28;20009;-62
2021/08/22 12:46:17;;;;;;;;;;;27.10;58.60;;;;;;4974394;28;19926;-62
2021/08/22 12:48:44;;;;;;;;;;;27.10;58.50;;;;;;4990192;28;19980;-62
2021/08/22 12:51:12;;;;;;;;;;;27.10;58.50;;;;;;4991406;28;19969;-62
2021/08/22 12:53:39;;;;;;;;;;;27.10;58.50;;;;;;4991375;28;20328;-63
2021/08/22 12:56:06;;;;;;;;;;;27.20;58.50;;;;;;4991037;28;19926;-63
2021/08/22 12:58:33;;;;;;;;;;;27.10;58.50;;;;;;4991207;28;19977;-63
2021/08/22 13:01:01;;;;;;;;;;;27.10;58.40;;;;;;4973110;28;19926;-63
2021/08/22 13:03:31;;;;;;;;;;;27.20;58.50;;;;;;4990669;28;20454;-62
2021/08/22 13:05:58;;;;;;;;;;;27.20;58.50;;;;;;4991311;28;19926;-62
2021/08/22 13:08:26;;;;;;;;;;;27.20;58.50;;;;;;4989824;28;19926;-63
2021/08/22 13:10:53;;;;;;;;;;;27.20;58.50;;;;;;4990777;28;19931;-62
2021/08/22 13:13:20;;;;;;;;;;;27.20;58.60;;;;;;4991335;28;20271;-63
2021/08/22 13:15:47;;;;;;;;;;;27.20;58.60;;;;;;4989508;28;20009;-62
2021/08/22 13:18:15;;;;;;;;;;;27.20;58.60;;;;;;4973893;28;20322;-63
2021/08/22 13:20:42;;;;;;;;;;;27.20;58.60;;;;;;4973907;28;19948;-63
2021/08/22 13:23:09;;;;;;;;;;;27.20;58.60;;;;;;4990803;28;20017;-62
2021/08/22 13:25:36;;;;;;;;;;;27.10;58.60;;;;;;4991062;28;19950;-63
2021/08/22 13:28:03;;;;;;;;;;;27.10;58.60;;;;;;4989579;28;19980;-62
2021/08/22 13:30:31;;;;;;;;;;;27.10;58.70;;;;;;4990603;28;19926;-63
2021/08/22 13:32:58;;;;;;;;;;;27.10;58.70;;;;;;4990393;28;19972;-63
2021/08/22 13:35:27;;;;;;;;;;;27.10;58.80;;;;;;4990526;28;19926;-62
2021/08/22 13:37:58;;;;;;;;;;;27.10;58.90;;;;;;4989524;28;20013;-62
2021/08/22 13:40:25;;;;;;;;;;;27.00;58.80;;;;;;4990418;28;19984;-63
2021/08/22 13:42:53;;;;;;;;;;;27.00;58.90;;;;;;4989425;28;19969;-62
2021/08/22 13:45:21;;;;;;;;;;;27.00;59.00;;;;;;4989426;28;19926;-63
2021/08/22 13:47:50;;;;;;;;;;;27.00;59.10;;;;;;4989424;28;19937;-63
2021/08/22 13:50:17;;;;;;;;;;;26.90;59.00;;;;;;4989525;28;19966;-63
2021/08/22 13:52:45;;;;;;;;;;;27.00;59.10;;;;;;4990708;28;19926;-63
2021/08/22 13:55:13;;;;;;;;;;;27.00;59.10;;;;;;4981625;28;19926;-63
2021/08/22 13:57:40;;;;;;;;;;;26.90;59.10;;;;;;4990260;28;20443;-62
2021/08/22 14:00:07;;;;;;;;;;;26.90;59.10;;;;;;4990583;28;20377;-62
2021/08/22 14:02:34;;;;;;;;;;;26.90;59.20;;;;;;4990717;28;19948;-63
2021/08/22 14:05:02;;;;;;;;;;;26.90;59.20;;;;;;4989456;28;19930;-62
2021/08/22 14:07:30;;;;;;;;;;;26.90;59.20;;;;;;4989233;28;19926;-63
2021/08/22 14:09:57;;;;;;;;;;;26.90;59.20;;;;;;4990471;28;19991;-62
2021/08/22 14:12:24;;;;;;;;;;;26.90;59.30;;;;;;4989069;28;19926;-63
2021/08/22 14:14:52;;;;;;;;;;;26.90;59.30;;;;;;4990157;28;19926;-62
2021/08/22 14:17:19;;;;;;;;;;;26.90;59.30;;;;;;4990042;28;19926;-63
2021/08/22 14:19:49;;;;;;;;;;;26.90;59.40;;;;;;4988973;28;20008;-62
2021/08/22 14:22:17;;;;;;;;;;;26.90;59.40;;;;;;4990065;28;19926;-62
2021/08/22 14:24:44;;;;;;;;;;;26.80;59.30;;;;;;4989966;28;19925;-62
2021/08/22 14:27:11;;;;;;;;;;;26.80;59.40;;;;;;4991336;28;19926;-62
2021/08/22 14:29:39;;;;;;;;;;;26.90;59.40;;;;;;4993266;28;19933;-62